createdAt,value
2023-01-18T00:02:11.816Z,98709.19
2023-01-18T00:04:35.439Z,98707.53
2023-01-18T00:06:59.045Z,98706.78
2023-01-18T00:09:22.782Z,98707.22
2023-01-18T00:11:46.318Z,98700.97
2023-01-18T00:14:11.318Z,98693.44
2023-01-18T00:16:35.127Z,98695.78
2023-01-18T00:19:00.857Z,98693.97
2023-01-18T00:21:25.343Z,98689.94
2023-01-18T00:23:48.958Z,98693.31
2023-01-18T00:26:14.047Z,98684.19
2023-01-18T00:28:38.440Z,98689.47
2023-01-18T00:31:03.592Z,98685.38
2023-01-18T00:33:27.227Z,98680.50
2023-01-18T00:35:57.901Z,98680.09
2023-01-18T00:38:21.491Z,98677.34
2023-01-18T00:40:47.253Z,98676.19
2023-01-18T00:43:28.023Z,98680.84
2023-01-18T00:45:51.677Z,98681.97
2023-01-18T00:48:16.635Z,98684.63
2023-01-18T00:50:40.299Z,98693.25
2023-01-18T00:53:03.914Z,98693.66
2023-01-18T00:55:28.028Z,98693.38
2023-01-18T00:57:51.645Z,98693.16
2023-01-18T01:00:16.345Z,98693.38
2023-01-18T01:02:41.107Z,98693.44
2023-01-18T01:05:24.299Z,98696.72
2023-01-18T01:07:50.188Z,98697.69
2023-01-18T01:10:13.690Z,98702.09
2023-01-18T01:12:55.149Z,98709.06
2023-01-18T01:15:36.371Z,98725.78
2023-01-18T01:18:17.284Z,98724.31
2023-01-18T01:20:59.783Z,98728.25
2023-01-18T01:23:42.718Z,98733.50
2023-01-18T01:26:08.333Z,98726.19
2023-01-18T01:28:31.891Z,98723.75
2023-01-18T01:31:00.463Z,98727.59
2023-01-18T01:33:24.435Z,98743.16
2023-01-18T01:35:49.953Z,98742.53
2023-01-18T01:38:13.504Z,98753.00
2023-01-18T01:40:37.145Z,98758.78
2023-01-18T01:43:00.657Z,98755.81
2023-01-18T01:45:26.893Z,98757.38
2023-01-18T01:47:50.442Z,98755.22
2023-01-18T01:50:21.067Z,98764.31
2023-01-18T01:52:48.806Z,98755.63
2023-01-18T01:55:18.217Z,98766.97
2023-01-18T01:57:46.767Z,98767.88
2023-01-18T02:00:13.382Z,98766.19
2023-01-18T02:02:38.046Z,98766.81
2023-01-18T02:05:04.806Z,98763.38
2023-01-18T02:07:29.763Z,98761.19
2023-01-18T02:09:56.826Z,98778.88
2023-01-18T02:12:21.167Z,98779.31
2023-01-18T02:14:44.861Z,98777.53
2023-01-18T02:17:28.352Z,98784.97
2023-01-18T02:20:52.032Z,98787.59
2023-01-18T02:24:10.266Z,98788.75
2023-01-18T02:26:54.427Z,98786.88
2023-01-18T02:29:23.190Z,98794.28
2023-01-18T02:32:09.529Z,98776.81
2023-01-18T02:34:42.011Z,98790.81
2023-01-18T02:37:12.485Z,98789.19
2023-01-18T02:39:45.167Z,98788.31
2023-01-18T02:42:36.062Z,98782.38
2023-01-18T02:45:21.519Z,98772.91
2023-01-18T02:47:46.686Z,98762.47
2023-01-18T02:50:12.114Z,98761.63
2023-01-18T02:52:47.244Z,98767.81
2023-01-18T02:55:19.255Z,98772.16
2023-01-18T02:57:42.923Z,98775.53
2023-01-18T03:00:12.859Z,98782.44
2023-01-18T03:02:37.411Z,98781.38
2023-01-18T03:05:00.996Z,98787.59
2023-01-18T03:07:30.082Z,98787.81
2023-01-18T03:09:55.672Z,98788.34
2023-01-18T03:12:45.981Z,98783.19
2023-01-18T03:15:20.229Z,98798.66
2023-01-18T03:17:49.236Z,98792.03
2023-01-18T03:20:17.078Z,98794.03
2023-01-18T03:23:04.336Z,98787.72
2023-01-18T03:25:31.979Z,98783.91
2023-01-18T03:28:14.262Z,98786.13
2023-01-18T03:30:58.831Z,98785.31
2023-01-18T03:33:45.726Z,98782.19
2023-01-18T03:36:16.272Z,98783.84
2023-01-18T03:38:42.408Z,98786.47
2023-01-18T03:41:08.071Z,98787.84
2023-01-18T03:43:37.893Z,98789.63
2023-01-18T03:46:03.802Z,98785.84
2023-01-18T03:48:27.395Z,98789.22
2023-01-18T03:50:53.578Z,98791.44
2023-01-18T03:53:32.852Z,98790.72
2023-01-18T03:56:02.897Z,98791.03
2023-01-18T03:58:36.230Z,98800.09
2023-01-18T04:01:00.312Z,98795.47
2023-01-18T04:03:25.251Z,98807.72
2023-01-18T04:05:49.114Z,98798.84
2023-01-18T04:08:12.616Z,98795.88
2023-01-18T04:10:36.250Z,98809.78
2023-01-18T04:13:00.275Z,98805.25
2023-01-18T04:15:24.589Z,98807.06
2023-01-18T04:17:49.805Z,98800.00
2023-01-18T04:20:15.050Z,98803.91
2023-01-18T04:22:38.680Z,98807.47
2023-01-18T04:25:02.285Z,98798.22
2023-01-18T04:27:26.247Z,98801.50
2023-01-18T04:29:49.813Z,98802.63
2023-01-18T04:32:13.412Z,98800.75
2023-01-18T04:34:37.112Z,98799.06
2023-01-18T04:37:02.337Z,98799.06
2023-01-18T04:39:26.355Z,98796.41
2023-01-18T04:41:49.971Z,98795.59
2023-01-18T04:44:14.016Z,98799.91
2023-01-18T04:46:38.399Z,98793.16
2023-01-18T04:49:02.224Z,98789.69
2023-01-18T04:51:27.289Z,98789.16
2023-01-18T04:53:52.808Z,98793.91
2023-01-18T04:56:16.923Z,98795.06
2023-01-18T04:58:40.568Z,98806.81
2023-01-18T05:01:04.632Z,98811.72
2023-01-18T05:03:28.282Z,98817.22
2023-01-18T05:05:52.707Z,98820.06
2023-01-18T05:08:16.284Z,98816.59
2023-01-18T05:10:41.181Z,98819.97
2023-01-18T05:13:04.901Z,98818.81
2023-01-18T05:15:28.435Z,98827.56
2023-01-18T05:17:52.018Z,98828.31
2023-01-18T05:20:15.700Z,98825.25
2023-01-18T05:22:39.404Z,98833.16
2023-01-18T05:25:02.933Z,98833.72
2023-01-18T05:27:27.885Z,98835.81
2023-01-18T05:29:51.913Z,98845.97
2023-01-18T05:32:15.603Z,98843.00
2023-01-18T05:34:39.142Z,98846.34
2023-01-18T05:37:04.551Z,98849.31
2023-01-18T05:39:28.064Z,98853.31
2023-01-18T05:41:51.852Z,98860.09
2023-01-18T05:44:16.763Z,98863.44
2023-01-18T05:46:40.371Z,98863.22
2023-01-18T05:49:03.913Z,98864.44
2023-01-18T05:51:27.498Z,98872.41
2023-01-18T05:53:51.113Z,98868.72
2023-01-18T05:56:15.253Z,98870.41
2023-01-18T05:58:39.088Z,98876.97
2023-01-18T06:01:04.505Z,98873.50
2023-01-18T06:03:28.148Z,98874.16
2023-01-18T06:05:52.604Z,98876.16
2023-01-18T06:08:16.553Z,98866.66
2023-01-18T06:10:40.467Z,98861.16
2023-01-18T06:13:04.029Z,98859.44
2023-01-18T06:15:27.712Z,98868.88
2023-01-18T06:17:52.654Z,98874.84
2023-01-18T06:20:17.068Z,98879.41
2023-01-18T06:22:40.774Z,98883.84
2023-01-18T06:25:04.456Z,98886.59
2023-01-18T06:27:28.086Z,98886.59
2023-01-18T06:29:52.012Z,98892.09
2023-01-18T06:32:15.967Z,98897.66
2023-01-18T06:34:40.973Z,98896.22
2023-01-18T06:37:05.291Z,98899.16
2023-01-18T06:39:28.838Z,98902.56
2023-01-18T06:41:52.499Z,98904.44
2023-01-18T06:44:16.203Z,98909.50
2023-01-18T06:46:39.717Z,98912.69
2023-01-18T06:49:03.352Z,98913.25
2023-01-18T06:51:28.271Z,98915.94
2023-01-18T06:53:51.868Z,98915.97
2023-01-18T06:56:15.936Z,98921.75
2023-01-18T06:58:39.620Z,98919.56
2023-01-18T07:01:03.386Z,98926.63
2023-01-18T07:03:29.026Z,98938.22
2023-01-18T07:05:54.747Z,98932.22
2023-01-18T07:08:21.013Z,98935.38
2023-01-18T07:10:44.546Z,98942.13
2023-01-18T07:13:08.152Z,98936.97
2023-01-18T07:15:31.817Z,98938.66
2023-01-18T07:17:55.382Z,98936.84
2023-01-18T07:20:19.979Z,98938.25
2023-01-18T07:22:43.828Z,98935.50
2023-01-18T07:25:13.264Z,98938.69
2023-01-18T07:27:36.965Z,98940.38
2023-01-18T07:30:00.668Z,98947.75
2023-01-18T07:32:24.359Z,98951.66
2023-01-18T07:34:47.882Z,98952.31
2023-01-18T07:37:11.487Z,98947.66
2023-01-18T07:39:35.039Z,98952.94
2023-01-18T07:42:00.040Z,98953.97
2023-01-18T07:44:24.146Z,98955.28
2023-01-18T07:46:47.723Z,98955.16
2023-01-18T07:49:11.361Z,98958.22
2023-01-18T07:51:35.179Z,98954.44
2023-01-18T07:53:58.790Z,98956.66
2023-01-18T07:56:22.939Z,98950.13
2023-01-18T07:58:48.223Z,98957.41
2023-01-18T08:01:15.162Z,98946.22
2023-01-18T08:03:39.442Z,98950.44
2023-01-18T08:06:07.118Z,98960.69
2023-01-18T08:08:31.724Z,98959.72
2023-01-18T08:10:56.964Z,98944.28
2023-01-18T08:13:20.559Z,98951.38
2023-01-18T08:15:45.537Z,98941.25
2023-01-18T08:18:09.641Z,98945.97
2023-01-18T08:20:33.991Z,98948.94
2023-01-18T08:22:59.051Z,98945.47
2023-01-18T08:25:22.807Z,98948.44
2023-01-18T08:27:46.334Z,98948.06
2023-01-18T08:30:11.996Z,98950.94
2023-01-18T08:32:37.078Z,98950.63
2023-01-18T08:35:00.968Z,98952.09
2023-01-18T08:37:24.815Z,98947.31
2023-01-18T08:39:48.420Z,98951.53
2023-01-18T08:42:13.284Z,98955.78
2023-01-18T08:44:36.985Z,98969.28
2023-01-18T08:47:00.556Z,98970.19
2023-01-18T08:49:25.580Z,98968.41
2023-01-18T08:51:49.189Z,98965.50
2023-01-18T08:54:12.816Z,98972.38
2023-01-18T08:56:36.441Z,98973.94
2023-01-18T08:59:00.218Z,98963.97
2023-01-18T09:01:24.210Z,98964.34
2023-01-18T09:03:50.586Z,98967.69
2023-01-18T09:06:16.834Z,98971.84
2023-01-18T09:08:40.488Z,98976.97
2023-01-18T09:11:05.031Z,98978.47
2023-01-18T09:13:28.596Z,98972.16
2023-01-18T09:16:00.587Z,98979.72
2023-01-18T09:18:24.349Z,98985.41
2023-01-18T09:20:47.867Z,98977.28
2023-01-18T09:23:12.870Z,98989.19
2023-01-18T09:25:37.007Z,98986.94
2023-01-18T09:28:02.650Z,99001.13
2023-01-18T09:30:26.223Z,98994.31
2023-01-18T09:32:49.785Z,98993.34
2023-01-18T09:35:18.073Z,98998.44
2023-01-18T09:37:41.652Z,98994.00
2023-01-18T09:40:08.499Z,98999.78
2023-01-18T09:42:39.449Z,99002.09
2023-01-18T09:45:03.599Z,99001.16
2023-01-18T09:47:30.893Z,98999.47
2023-01-18T09:49:57.888Z,99005.41
2023-01-18T09:52:31.762Z,99010.53
2023-01-18T09:55:06.019Z,99002.84
2023-01-18T09:57:44.743Z,99003.19
2023-01-18T10:00:21.660Z,99005.22
2023-01-18T10:02:48.680Z,98996.94
2023-01-18T10:05:18.336Z,99003.34
2023-01-18T10:08:02.607Z,99003.78
2023-01-18T10:10:28.436Z,99010.09
2023-01-18T10:13:01.559Z,99004.06
2023-01-18T10:15:30.138Z,99007.34
2023-01-18T10:17:57.672Z,99006.44
2023-01-18T10:20:33.830Z,99002.88
2023-01-18T10:23:03.120Z,99012.66
2023-01-18T10:25:34.450Z,99014.59
2023-01-18T10:28:25.269Z,99009.28
2023-01-18T10:31:03.916Z,99010.59
2023-01-18T10:33:32.285Z,99012.78
2023-01-18T10:36:00.470Z,99020.84
2023-01-18T10:38:27.500Z,99011.34
2023-01-18T10:40:59.474Z,99007.69
2023-01-18T10:43:25.855Z,99014.94
2023-01-18T10:45:49.488Z,99015.19
2023-01-18T10:48:32.933Z,99020.00
2023-01-18T10:50:59.940Z,99017.97
2023-01-18T10:53:31.016Z,99013.47
2023-01-18T10:56:02.225Z,99014.44
2023-01-18T10:58:31.589Z,99020.72
2023-01-18T11:00:56.453Z,99028.06
2023-01-18T11:03:23.537Z,99027.31
2023-01-18T11:05:47.683Z,99023.47
2023-01-18T11:08:22.623Z,99024.53
2023-01-18T11:10:47.369Z,99031.28
2023-01-18T11:13:28.859Z,99023.28
2023-01-18T11:16:12.828Z,99026.06
2023-01-18T11:18:36.622Z,99028.78
2023-01-18T11:21:00.233Z,99027.19
2023-01-18T11:23:27.043Z,99035.50
2023-01-18T11:25:58.554Z,99031.81
2023-01-18T11:28:27.488Z,99034.19
2023-01-18T11:30:59.086Z,99034.31
2023-01-18T11:33:25.739Z,99028.69
2023-01-18T11:35:55.967Z,99034.31
2023-01-18T11:38:20.696Z,99039.16
2023-01-18T11:40:44.525Z,99042.66
2023-01-18T11:43:17.444Z,99042.16
2023-01-18T11:45:49.115Z,99038.91
2023-01-18T11:48:24.268Z,99037.47
2023-01-18T11:50:54.240Z,99031.97
2023-01-18T11:53:32.007Z,99040.28
2023-01-18T11:56:06.125Z,99036.66
2023-01-18T11:58:32.392Z,99038.28
2023-01-18T12:01:22.772Z,99031.59
2023-01-18T12:03:57.370Z,99044.59
2023-01-18T12:06:38.906Z,99044.84
2023-01-18T12:09:20.278Z,99046.63
2023-01-18T12:12:13.275Z,99049.44
2023-01-18T12:15:01.037Z,99054.47
2023-01-18T12:17:46.786Z,99049.66
2023-01-18T12:20:28.899Z,99054.84
2023-01-18T12:23:24.602Z,99058.22
2023-01-18T12:26:12.086Z,99068.25
2023-01-18T12:28:59.416Z,99066.81
2023-01-18T12:31:37.065Z,99062.56
2023-01-18T12:34:13.728Z,99067.25
2023-01-18T12:37:15.769Z,99069.19
2023-01-18T12:39:55.854Z,99075.09
2023-01-18T12:42:33.055Z,99074.16
2023-01-18T12:45:11.072Z,99073.06
2023-01-18T12:47:39.361Z,99080.53
2023-01-18T12:50:17.267Z,99083.78
2023-01-18T12:52:47.251Z,99091.53
2023-01-18T12:55:21.332Z,99098.38
2023-01-18T12:57:46.696Z,99099.84
2023-01-18T13:00:18.968Z,99103.69
2023-01-18T13:02:45.804Z,99106.97
2023-01-18T13:05:19.092Z,99110.97
2023-01-18T13:07:47.630Z,99111.19
2023-01-18T13:10:20.207Z,99123.00
2023-01-18T13:12:44.886Z,99117.69
2023-01-18T13:15:24.898Z,99124.25
2023-01-18T13:17:57.769Z,99133.63
2023-01-18T13:20:35.022Z,99129.78
2023-01-18T13:23:12.093Z,99138.31
2023-01-18T13:25:49.697Z,99145.09
2023-01-18T13:28:20.518Z,99142.44
2023-01-18T13:30:56.466Z,99148.97
2023-01-18T13:33:24.480Z,99147.13
2023-01-18T13:35:56.443Z,99152.19
2023-01-18T13:38:40.173Z,99150.75
2023-01-18T13:41:07.049Z,99153.44
2023-01-18T13:44:05.318Z,99154.50
2023-01-18T13:46:31.336Z,99157.78
2023-01-18T13:48:57.296Z,99161.16
2023-01-18T13:51:57.614Z,99160.75
2023-01-18T13:55:23.859Z,99169.94
2023-01-18T13:57:55.756Z,99173.31
2023-01-18T14:00:25.695Z,99172.97
2023-01-18T14:02:54.594Z,99180.69
2023-01-18T14:05:25.337Z,99182.25
2023-01-18T14:07:54.470Z,99186.13
2023-01-18T14:10:31.791Z,99194.03
2023-01-18T14:12:57.744Z,99186.94
2023-01-18T14:15:28.991Z,99198.78
2023-01-18T14:17:58.589Z,99194.66
2023-01-18T14:21:10.850Z,99203.59
2023-01-18T14:24:09.057Z,99213.63
2023-01-18T14:26:36.372Z,99214.84
2023-01-18T14:29:03.611Z,99220.22
2023-01-18T14:31:32.255Z,99230.16
2023-01-18T14:33:55.846Z,99226.94
2023-01-18T14:36:23.404Z,99241.50
2023-01-18T14:38:46.946Z,99242.69
2023-01-18T14:41:18.044Z,99244.03
2023-01-18T14:43:45.927Z,99249.34
2023-01-18T14:46:15.942Z,99253.78
2023-01-18T14:48:49.089Z,99255.13
2023-01-18T14:51:19.137Z,99265.34
2023-01-18T14:53:48.097Z,99267.78
2023-01-18T14:56:20.828Z,99268.97
2023-01-18T14:58:52.509Z,99277.66
2023-01-18T15:01:30.613Z,99278.63
2023-01-18T15:03:56.130Z,99286.84
2023-01-18T15:06:29.354Z,99290.66
2023-01-18T15:08:53.229Z,99288.53
2023-01-18T15:11:18.295Z,99295.38
2023-01-18T15:13:49.120Z,99299.44
2023-01-18T15:16:13.438Z,99301.00
2023-01-18T15:18:37.000Z,99306.84
2023-01-18T15:21:06.248Z,99311.00
2023-01-18T15:23:31.081Z,99319.22
2023-01-18T15:25:56.730Z,99319.47
2023-01-18T15:28:24.227Z,99330.34
2023-01-18T15:30:52.032Z,99333.16
2023-01-18T15:33:15.940Z,99326.94
2023-01-18T15:35:39.682Z,99332.31
2023-01-18T15:38:05.046Z,99337.72
2023-01-18T15:40:31.051Z,99350.16
2023-01-18T15:43:08.461Z,99354.94
2023-01-18T15:45:35.802Z,99355.06
2023-01-18T15:48:02.753Z,99358.09
2023-01-18T15:50:32.816Z,99361.63
2023-01-18T15:53:11.576Z,99365.16
2023-01-18T15:55:40.011Z,99368.63
2023-01-18T15:58:07.644Z,99373.63
2023-01-18T16:00:41.119Z,99374.50
2023-01-18T16:03:05.988Z,99380.56
2023-01-18T16:05:29.594Z,99383.84
2023-01-18T16:08:16.361Z,99391.63
2023-01-18T16:10:51.009Z,99393.53
2023-01-18T16:13:42.708Z,99402.56
2023-01-18T16:16:15.500Z,99409.88
2023-01-18T16:18:39.186Z,99408.47
2023-01-18T16:21:03.729Z,99414.41
2023-01-18T16:23:27.519Z,99417.16
2023-01-18T16:25:53.462Z,99426.09
2023-01-18T16:28:23.762Z,99427.75
2023-01-18T16:30:51.900Z,99422.69
2023-01-18T16:33:19.132Z,99430.31
2023-01-18T16:35:42.991Z,99434.56
2023-01-18T16:38:11.211Z,99437.13
2023-01-18T16:40:39.475Z,99435.22
2023-01-18T16:43:05.934Z,99450.28
2023-01-18T16:45:30.869Z,99453.56
2023-01-18T16:47:54.387Z,99450.34
2023-01-18T16:50:20.368Z,99461.06
2023-01-18T16:52:44.724Z,99454.28
2023-01-18T16:55:10.902Z,99458.53
2023-01-18T16:57:34.555Z,99455.69
2023-01-18T16:59:58.113Z,99459.81
2023-01-18T17:02:22.033Z,99463.41
2023-01-18T17:04:46.688Z,99465.84
2023-01-18T17:07:12.196Z,99474.22
2023-01-18T17:09:47.155Z,99472.31
2023-01-18T17:12:11.948Z,99479.91
2023-01-18T17:14:35.523Z,99484.28
2023-01-18T17:16:59.779Z,99477.94
2023-01-18T17:19:24.626Z,99483.31
2023-01-18T17:21:49.472Z,99489.06
2023-01-18T17:24:15.297Z,99492.25
2023-01-18T17:26:40.261Z,99493.28
2023-01-18T17:29:05.181Z,99495.69
2023-01-18T17:31:29.660Z,99508.06
2023-01-18T17:33:53.162Z,99506.81
2023-01-18T17:36:16.882Z,99514.66
2023-01-18T17:38:40.437Z,99514.06
2023-01-18T17:41:07.122Z,99515.38
2023-01-18T17:43:34.380Z,99519.78
2023-01-18T17:46:01.903Z,99522.84
2023-01-18T17:48:25.789Z,99532.22
2023-01-18T17:50:49.468Z,99535.56
2023-01-18T17:53:13.014Z,99534.09
2023-01-18T17:55:36.989Z,99532.22
2023-01-18T17:58:01.949Z,99549.63
2023-01-18T18:00:25.598Z,99542.47
2023-01-18T18:02:52.762Z,99547.88
2023-01-18T18:05:16.503Z,99546.69
2023-01-18T18:07:40.265Z,99542.09
2023-01-18T18:10:04.019Z,99551.47
2023-01-18T18:12:28.126Z,99547.22
2023-01-18T18:14:55.818Z,99558.44
2023-01-18T18:17:19.544Z,99559.84
2023-01-18T18:19:43.199Z,99563.31
2023-01-18T18:22:07.230Z,99568.72
2023-01-18T18:24:30.809Z,99564.53
2023-01-18T18:26:54.567Z,99564.22
2023-01-18T18:29:18.977Z,99572.31
2023-01-18T18:31:44.627Z,99575.16
2023-01-18T18:34:08.724Z,99574.03
2023-01-18T18:36:32.579Z,99577.72
2023-01-18T18:38:56.171Z,99577.34
2023-01-18T18:41:19.983Z,99580.09
2023-01-18T18:43:43.591Z,99582.47
2023-01-18T18:46:07.438Z,99585.63
2023-01-18T18:48:32.433Z,99579.16
2023-01-18T18:50:56.265Z,99583.91
2023-01-18T18:53:23.865Z,99592.31
2023-01-18T18:55:59.347Z,99598.28
2023-01-18T18:58:23.102Z,99605.16
2023-01-18T19:00:47.202Z,99608.09
2023-01-18T19:03:11.273Z,99614.31
2023-01-18T19:05:37.182Z,99614.03
2023-01-18T19:08:01.445Z,99612.72
2023-01-18T19:10:27.542Z,99620.72
2023-01-18T19:12:51.091Z,99620.44
2023-01-18T19:15:14.788Z,99620.03
2023-01-18T19:17:38.357Z,99624.63
2023-01-18T19:20:01.977Z,99630.94
2023-01-18T19:22:27.682Z,99635.25
2023-01-18T19:24:51.249Z,99639.34
2023-01-18T19:27:14.985Z,99641.03
2023-01-18T19:29:39.409Z,99643.13
2023-01-18T19:32:02.932Z,99638.53
2023-01-18T19:34:27.088Z,99644.47
2023-01-18T19:36:51.470Z,99645.34
2023-01-18T19:39:22.367Z,99643.44
2023-01-18T19:41:49.629Z,99638.31
2023-01-18T19:44:13.233Z,99645.00
2023-01-18T19:46:37.351Z,99645.00
2023-01-18T19:49:02.757Z,99642.47
2023-01-18T19:51:27.489Z,99653.09
2023-01-18T19:53:51.230Z,99652.22
2023-01-18T19:56:16.687Z,99651.56
2023-01-18T19:58:41.830Z,99655.50
2023-01-18T20:01:10.507Z,99666.72
2023-01-18T20:03:34.466Z,99663.63
2023-01-18T20:05:58.442Z,99665.59
2023-01-18T20:08:22.558Z,99662.19
2023-01-18T20:10:46.153Z,99665.66
2023-01-18T20:13:11.528Z,99672.81
2023-01-18T20:15:36.782Z,99673.50
2023-01-18T20:18:01.037Z,99671.53
2023-01-18T20:20:32.461Z,99677.44
2023-01-18T20:22:57.260Z,99673.69
2023-01-18T20:25:22.060Z,99674.78
2023-01-18T20:27:46.433Z,99676.69
2023-01-18T20:30:13.558Z,99684.19
2023-01-18T20:32:37.958Z,99693.19
2023-01-18T20:35:01.504Z,99692.34
2023-01-18T20:37:25.693Z,99692.00
2023-01-18T20:39:50.242Z,99685.75
2023-01-18T20:42:15.451Z,99696.84
2023-01-18T20:44:39.096Z,99686.28
2023-01-18T20:47:04.924Z,99697.78
2023-01-18T20:49:43.754Z,99689.84
2023-01-18T20:52:07.757Z,99695.13
2023-01-18T20:54:31.284Z,99697.56
2023-01-18T20:56:55.440Z,99697.72
2023-01-18T20:59:20.163Z,99699.44
2023-01-18T21:01:44.083Z,99701.63
2023-01-18T21:04:09.301Z,99700.88
2023-01-18T21:06:34.117Z,99705.72
2023-01-18T21:08:59.806Z,99710.28
2023-01-18T21:11:25.395Z,99711.38
2023-01-18T21:13:49.670Z,99706.72
2023-01-18T21:16:13.827Z,99719.47
2023-01-18T21:18:39.572Z,99726.22
2023-01-18T21:21:05.900Z,99730.56
2023-01-18T21:23:30.015Z,99731.63
2023-01-18T21:25:55.953Z,99733.44
2023-01-18T21:28:19.791Z,99738.06
2023-01-18T21:30:43.446Z,99740.41
2023-01-18T21:33:07.118Z,99738.63
2023-01-18T21:35:31.089Z,99732.63
2023-01-18T21:37:56.184Z,99741.00
2023-01-18T21:40:20.064Z,99744.56
2023-01-18T21:43:00.022Z,99746.38
2023-01-18T21:45:40.864Z,99748.63
2023-01-18T21:48:08.374Z,99748.44
2023-01-18T21:50:49.253Z,99754.97
2023-01-18T21:53:34.106Z,99764.66
2023-01-18T21:55:57.666Z,99756.19
2023-01-18T21:58:38.807Z,99764.53
2023-01-18T22:01:02.486Z,99764.41
2023-01-18T22:03:26.149Z,99763.00
2023-01-18T22:05:49.769Z,99767.28
2023-01-18T22:08:13.336Z,99768.66
2023-01-18T22:10:38.439Z,99771.22
2023-01-18T22:13:01.963Z,99775.56
2023-01-18T22:15:25.563Z,99775.59
2023-01-18T22:17:49.156Z,99780.47
2023-01-18T22:20:13.832Z,99782.56
2023-01-18T22:22:37.779Z,99787.38
2023-01-18T22:25:02.370Z,99782.56
2023-01-18T22:27:27.332Z,99779.16
2023-01-18T22:29:51.210Z,99791.94
2023-01-18T22:32:14.751Z,99795.44
2023-01-18T22:34:38.375Z,99794.94
2023-01-18T22:37:03.203Z,99796.22
2023-01-18T22:39:26.864Z,99802.47
2023-01-18T22:41:50.411Z,99801.41
2023-01-18T22:44:17.417Z,99804.47
2023-01-18T22:46:40.962Z,99806.31
2023-01-18T22:49:04.703Z,99802.75
2023-01-18T22:51:28.390Z,99803.34
2023-01-18T22:53:52.563Z,99805.88
2023-01-18T22:56:20.020Z,99814.28
2023-01-18T22:58:43.761Z,99814.59
2023-01-18T23:01:21.389Z,99810.66
2023-01-18T23:03:45.492Z,99811.38
2023-01-18T23:06:10.567Z,99816.28
2023-01-18T23:08:42.525Z,99816.72
2023-01-18T23:11:06.204Z,99815.13
2023-01-18T23:13:29.735Z,99810.56
2023-01-18T23:16:10.378Z,99805.81
2023-01-18T23:18:35.378Z,99816.22
2023-01-18T23:21:00.028Z,99818.00
2023-01-18T23:23:23.677Z,99818.06
2023-01-18T23:25:47.265Z,99815.56
2023-01-18T23:28:10.860Z,99821.38
2023-01-18T23:30:34.488Z,99819.41
2023-01-18T23:32:58.204Z,99820.66
2023-01-18T23:35:23.141Z,99828.56
2023-01-18T23:37:46.757Z,99817.81
2023-01-18T23:40:30.956Z,99818.41
2023-01-18T23:43:12.453Z,99823.53
2023-01-18T23:45:53.304Z,99823.16
2023-01-18T23:48:36.385Z,99827.06
2023-01-18T23:51:18.829Z,99832.09
2023-01-18T23:53:59.964Z,99827.53
2023-01-18T23:56:23.605Z,99829.75
2023-01-18T23:58:47.109Z,99833.72
